createdAt,value
2019-04-07T00:00:02.126Z,7.4
2019-04-07T00:05:10.907Z,7.3
2019-04-07T00:10:01.924Z,7.3
2019-04-07T00:15:01.568Z,7.2
2019-04-07T00:20:01.266Z,7.1
2019-04-07T00:25:01.903Z,7.2
2019-04-07T00:30:01.927Z,7.1
2019-04-07T00:35:01.199Z,7.1
2019-04-07T00:40:02.266Z,7.1
2019-04-07T00:45:02.150Z,7.1
2019-04-07T00:50:01.544Z,7.1
2019-04-07T00:55:02.228Z,7
2019-04-07T01:00:02.832Z,7
2019-04-07T01:05:02.565Z,7
2019-04-07T01:10:02.097Z,7
2019-04-07T01:15:02.253Z,6.9
2019-04-07T01:20:01.282Z,6.9
2019-04-07T01:25:01.284Z,6.9
2019-04-07T01:30:02.841Z,6.8
2019-04-07T01:35:02.467Z,6.8
2019-04-07T01:40:01.560Z,6.7
2019-04-07T01:45:01.799Z,6.7
2019-04-07T01:50:02.146Z,6.6
2019-04-07T01:55:02.759Z,6.6
2019-04-07T02:00:01.918Z,6.6
2019-04-07T02:05:01.322Z,6.5
2019-04-07T02:10:02.511Z,6.5
2019-04-07T02:15:02.352Z,6.5
2019-04-07T02:20:03.648Z,6.5
2019-04-07T02:25:01.977Z,6.4
2019-04-07T02:30:01.252Z,6.4
2019-04-07T02:35:02.164Z,6.4
2019-04-07T02:40:02.534Z,6.4
2019-04-07T02:45:01.941Z,6.4
2019-04-07T02:50:01.723Z,6.4
2019-04-07T02:55:02.351Z,6.3
2019-04-07T03:00:02.408Z,6.3
2019-04-07T03:05:02.127Z,6.2
2019-04-07T03:10:02.901Z,6.2
2019-04-07T03:15:02.784Z,6.1
2019-04-07T03:20:02.883Z,6.1
2019-04-07T03:25:01.991Z,6
2019-04-07T03:30:02.127Z,5.9
2019-04-07T03:35:03.045Z,5.9
2019-04-07T03:40:02.548Z,5.9
2019-04-07T03:45:01.412Z,5.9
2019-04-07T03:50:03.269Z,5.9
2019-04-07T03:55:02.294Z,5.8
2019-04-07T04:00:02.190Z,5.8
2019-04-07T04:05:01.175Z,5.8
2019-04-07T04:10:01.366Z,5.7
2019-04-07T04:15:02.395Z,5.7
2019-04-07T04:20:02.316Z,5.6
2019-04-07T04:25:02.886Z,5.6
2019-04-07T04:30:01.418Z,5.6
2019-04-07T04:35:03.138Z,5.6
2019-04-07T04:40:01.758Z,5.6
2019-04-07T04:45:02.373Z,5.7
2019-04-07T04:50:02.466Z,5.7
2019-04-07T04:55:01.952Z,5.7
2019-04-07T05:00:02.255Z,5.8
2019-04-07T05:05:02.393Z,5.9
2019-04-07T05:10:01.579Z,5.9
2019-04-07T05:15:01.697Z,6
2019-04-07T05:20:01.588Z,6.1
2019-04-07T05:25:02.274Z,6.1
2019-04-07T05:30:02.427Z,6.3
2019-04-07T05:35:02.336Z,6.4
2019-04-07T05:40:03.499Z,6.6
2019-04-07T05:45:02.233Z,6.8
2019-04-07T05:50:03.863Z,7
2019-04-07T05:55:02.671Z,7.2
2019-04-07T06:00:01.963Z,7.5
2019-04-07T06:05:01.950Z,7.6
2019-04-07T06:10:01.286Z,7.8
2019-04-07T06:15:01.873Z,8.1
2019-04-07T06:20:01.537Z,8.2
2019-04-07T06:25:03.871Z,8.4
2019-04-07T06:30:02.409Z,8.7
2019-04-07T06:35:01.947Z,9.2
2019-04-07T06:40:01.318Z,9.5
2019-04-07T06:45:02.456Z,9.8
2019-04-07T06:50:02.707Z,10.2
2019-04-07T06:55:01.902Z,10.5
2019-04-07T07:00:02.439Z,10.8
2019-04-07T07:05:02.757Z,11
2019-04-07T07:10:02.176Z,11.2
2019-04-07T07:15:03.289Z,11.5
2019-04-07T07:20:04.307Z,11.7
2019-04-07T07:25:02.135Z,12
2019-04-07T07:30:02.526Z,12.4
2019-04-07T07:35:02.094Z,12.8
2019-04-07T07:40:02.104Z,13.2
2019-04-07T07:45:01.657Z,13.5
2019-04-07T07:50:05.103Z,13.8
2019-04-07T07:55:02.993Z,14.2
2019-04-07T08:00:04.497Z,14.7
2019-04-07T08:05:01.829Z,14.9
2019-04-07T08:10:02.985Z,14.9
2019-04-07T08:15:01.724Z,15.2
2019-04-07T08:20:02.364Z,15.6
2019-04-07T08:25:02.505Z,16
2019-04-07T08:30:01.709Z,16.3
2019-04-07T08:35:04.288Z,16.7
2019-04-07T08:40:04.175Z,16.8
2019-04-07T08:45:03.232Z,16.9
2019-04-07T08:50:02.887Z,17
2019-04-07T08:55:01.984Z,17.1
2019-04-07T09:00:01.561Z,17.2
2019-04-07T09:05:02.694Z,17.3
2019-04-07T09:10:01.389Z,17.6
2019-04-07T09:15:03.788Z,17.9
2019-04-07T09:20:05.450Z,17.9
2019-04-07T09:25:04.813Z,18
2019-04-07T09:30:02.417Z,17.8
2019-04-07T09:35:01.967Z,17.7
2019-04-07T09:40:04.275Z,17.7
2019-04-07T09:45:02.133Z,17.7
2019-04-07T09:50:02.839Z,17.9
2019-04-07T09:55:02.040Z,17.6
2019-04-07T10:00:01.917Z,17.3
2019-04-07T10:05:01.430Z,17.1
2019-04-07T10:10:08.843Z,17.3
2019-04-07T10:15:02.298Z,17.3
2019-04-07T10:20:02.229Z,17.6
2019-04-07T10:25:02.368Z,17.8
2019-04-07T10:30:01.738Z,17.6
2019-04-07T10:35:02.490Z,17.9
2019-04-07T10:40:02.797Z,18.3
2019-04-07T10:45:01.233Z,18.7
2019-04-07T10:50:05.463Z,19.1
2019-04-07T10:55:02.801Z,19.5
2019-04-07T11:00:02.165Z,19.8
2019-04-07T11:05:01.927Z,20
2019-04-07T11:10:01.620Z,19.8
2019-04-07T11:15:02.512Z,19.9
2019-04-07T11:20:01.596Z,20
2019-04-07T11:25:01.899Z,20.1
2019-04-07T11:30:02.109Z,20.4
2019-04-07T11:35:01.637Z,20.7
2019-04-07T11:40:02.304Z,21
2019-04-07T11:45:03.085Z,21.2
2019-04-07T11:50:02.146Z,21.2
2019-04-07T11:55:02.071Z,21.7
2019-04-07T12:00:02.402Z,22
2019-04-07T12:05:01.864Z,22.2
2019-04-07T12:10:03.032Z,22.2
2019-04-07T12:15:02.206Z,22.2
2019-04-07T12:20:02.141Z,22
2019-04-07T12:25:03.190Z,21.8
2019-04-07T12:30:02.454Z,21.6
2019-04-07T12:35:01.939Z,21.8
2019-04-07T12:40:01.714Z,22.4
2019-04-07T12:45:01.749Z,22.5
2019-04-07T12:50:02.018Z,22.2
2019-04-07T12:55:01.673Z,22.6
2019-04-07T13:00:01.860Z,22.6
2019-04-07T13:05:03.498Z,22.2
2019-04-07T13:10:03.982Z,21.4
2019-04-07T13:15:02.365Z,20.6
2019-04-07T13:20:02.275Z,20
2019-04-07T13:25:04.488Z,19.6
2019-04-07T13:30:01.819Z,19.5
2019-04-07T13:35:01.870Z,19.5
2019-04-07T13:40:01.801Z,19.6
2019-04-07T13:45:03.843Z,19.7
2019-04-07T13:50:02.541Z,19.7
2019-04-07T13:55:04.414Z,19.5
2019-04-07T14:00:01.734Z,19.9
2019-04-07T14:05:05.085Z,19.9
2019-04-07T14:10:04.044Z,19.9
2019-04-07T14:15:01.572Z,19.5
2019-04-07T14:20:02.131Z,19.2
2019-04-07T14:25:02.612Z,18.9
2019-04-07T14:30:02.713Z,18.6
2019-04-07T14:35:02.201Z,18.1
2019-04-07T14:40:03.587Z,18
2019-04-07T14:45:01.315Z,17.8
2019-04-07T14:50:01.999Z,17.6
2019-04-07T14:55:02.613Z,17.5
2019-04-07T15:00:02.104Z,17.4
2019-04-07T15:05:03.000Z,17.3
2019-04-07T15:10:01.963Z,17.3
2019-04-07T15:15:05.575Z,17.3
2019-04-07T15:20:02.729Z,17.2
2019-04-07T15:25:01.606Z,17.4
2019-04-07T15:30:02.344Z,17.4
2019-04-07T15:35:02.298Z,17.6
2019-04-07T15:40:03.872Z,17.6
2019-04-07T15:45:02.410Z,17.7
2019-04-07T15:50:02.936Z,17.6
2019-04-07T15:55:02.101Z,17.6
2019-04-07T16:00:02.967Z,17.6
2019-04-07T16:05:03.404Z,17.3
2019-04-07T16:10:01.904Z,17.2
2019-04-07T16:15:02.164Z,16.9
2019-04-07T16:20:01.841Z,16.8
2019-04-07T16:25:01.775Z,16.6
2019-04-07T16:30:02.906Z,16.5
2019-04-07T16:35:01.929Z,16.3
2019-04-07T16:40:06.178Z,15.8
2019-04-07T16:45:02.231Z,15.7
2019-04-07T16:50:01.579Z,15.5
2019-04-07T16:55:02.357Z,15.2
2019-04-07T17:00:01.576Z,15
2019-04-07T17:05:01.767Z,14.5
2019-04-07T17:10:03.404Z,14
2019-04-07T17:15:04.496Z,13.8
2019-04-07T17:20:01.727Z,13.6
2019-04-07T17:25:04.336Z,13.6
2019-04-07T17:30:02.928Z,13.3
2019-04-07T17:35:02.153Z,13.3
2019-04-07T17:40:01.529Z,13.1
2019-04-07T17:45:02.200Z,12.9
2019-04-07T17:50:02.288Z,12.7
2019-04-07T17:55:02.819Z,12.6
2019-04-07T18:00:01.856Z,12.5
2019-04-07T18:05:02.026Z,12.5
2019-04-07T18:10:02.765Z,12.4
2019-04-07T18:15:05.672Z,12.3
2019-04-07T18:20:04.324Z,12.1
2019-04-07T18:25:03.414Z,11.9
2019-04-07T18:30:02.208Z,11.8
2019-04-07T18:35:02.433Z,11.6
2019-04-07T18:40:02.394Z,11.5
2019-04-07T18:45:02.020Z,11.4
2019-04-07T18:50:06.258Z,11.2
2019-04-07T18:55:04.078Z,11
2019-04-07T19:00:04.199Z,10.9
2019-04-07T19:05:02.002Z,10.8
2019-04-07T19:10:07.670Z,10.7
2019-04-07T19:15:06.879Z,10.6
2019-04-07T19:20:05.259Z,10.5
2019-04-07T19:25:04.749Z,10.4
2019-04-07T19:30:02.088Z,10.3
2019-04-07T19:35:02.565Z,10.2
2019-04-07T19:40:02.815Z,10.2
2019-04-07T19:45:04.311Z,10.1
2019-04-07T19:50:01.551Z,10
2019-04-07T19:55:02.430Z,9.9
2019-04-07T20:00:02.663Z,9.8
2019-04-07T20:05:02.012Z,9.6
2019-04-07T20:10:01.712Z,9.6
2019-04-07T20:15:06.820Z,9.5
2019-04-07T20:20:02.507Z,9.5
2019-04-07T20:25:01.717Z,9.4
2019-04-07T20:30:02.875Z,9.4
2019-04-07T20:35:01.881Z,9.3
2019-04-07T20:40:03.432Z,9.2
2019-04-07T20:45:05.535Z,9
2019-04-07T20:50:01.899Z,8.9
2019-04-07T20:55:04.603Z,8.9
2019-04-07T21:00:03.428Z,8.8
2019-04-07T21:05:02.750Z,8.8
2019-04-07T21:10:04.461Z,8.8
2019-04-07T21:15:16.009Z,8.7
2019-04-07T21:20:02.327Z,8.7
2019-04-07T21:25:01.971Z,8.6
2019-04-07T21:30:02.397Z,8.5
2019-04-07T21:35:03.025Z,8.5
2019-04-07T21:40:04.079Z,8.4
2019-04-07T21:45:04.667Z,8.4
2019-04-07T21:50:05.264Z,8.3
2019-04-07T21:55:01.332Z,8.2
2019-04-07T22:00:01.545Z,8.2
2019-04-07T22:05:02.848Z,8.1
2019-04-07T22:10:01.913Z,8.1
2019-04-07T22:15:02.412Z,8
2019-04-07T22:20:01.267Z,8
2019-04-07T22:25:05.965Z,8
2019-04-07T22:30:04.785Z,8
2019-04-07T22:35:04.249Z,8
2019-04-07T22:40:02.241Z,7.9
2019-04-07T22:45:02.114Z,7.9
2019-04-07T22:50:04.386Z,7.8
2019-04-07T22:55:04.465Z,7.8
2019-04-07T23:00:02.365Z,7.6
2019-04-07T23:05:01.465Z,7.4
2019-04-07T23:10:02.756Z,7.4
2019-04-07T23:15:01.576Z,7.4
2019-04-07T23:20:02.334Z,7.3
2019-04-07T23:25:02.340Z,7.3
2019-04-07T23:30:01.412Z,7.3
2019-04-07T23:35:01.785Z,7.3
2019-04-07T23:40:01.206Z,7.3
2019-04-07T23:45:03.019Z,7.2
2019-04-07T23:50:02.821Z,7
2019-04-07T23:55:02.423Z,7
